KLM276Y EHGG-EGMC
Flight info
| Callsign | KLM276Y |
|---|---|
| Flight time | 0h 48m |
| Altitude | 36000 |
| Route | ENKOS |
| Aircraft | A319/M-SDE3FGHIRWY/LB1 |
Departure
| Time | 2026-05-07 06:56 |
|---|---|
| Airport | Groningen Airport Eelde (EHGG) |
Arrival
| Time | 2026-05-07 07:44 |
|---|---|
| Airport | London Southend Airport (EGMC) |
| Time | Latitude | Longitude | Altitude | Speed | Heading |
|---|---|---|---|---|---|
| 2026-05-07 06:32 | 53.12815 | 6.58589 | 23 ft | 0 kts | 348° |
| 2026-05-07 06:33 | 53.12783 | 6.58521 | 21 ft | 0 kts | 359° |
| 2026-05-07 06:48 | 53.12764 | 6.58523 | 24 ft | 4 kts | 342° |
| 2026-05-07 06:48 | 53.12742 | 6.58545 | 21 ft | 4 kts | 298° |
| 2026-05-07 06:49 | 53.12738 | 6.58585 | 21 ft | 3 kts | 238° |
| 2026-05-07 06:49 | 53.12740 | 6.58591 | 21 ft | 1 kts | 232° |
| 2026-05-07 06:51 | 53.12737 | 6.58583 | 21 ft | 4 kts | 233° |
| 2026-05-07 06:51 | 53.12692 | 6.58485 | 21 ft | 16 kts | 232° |
| 2026-05-07 06:51 | 53.12619 | 6.58331 | 21 ft | 15 kts | 232° |
| 2026-05-07 06:51 | 53.12546 | 6.58175 | 21 ft | 19 kts | 232° |
| 2026-05-07 06:52 | 53.12459 | 6.57992 | 21 ft | 21 kts | 232° |
| 2026-05-07 06:52 | 53.12338 | 6.57841 | 21 ft | 24 kts | 190° |
| 2026-05-07 06:52 | 53.12170 | 6.57796 | 21 ft | 26 kts | 189° |
| 2026-05-07 06:52 | 53.11989 | 6.57747 | 22 ft | 28 kts | 189° |
| 2026-05-07 06:53 | 53.11820 | 6.57591 | 22 ft | 30 kts | 229° |
| 2026-05-07 06:53 | 53.11689 | 6.57313 | 23 ft | 32 kts | 232° |
| 2026-05-07 06:53 | 53.11547 | 6.57015 | 24 ft | 34 kts | 231° |
| 2026-05-07 06:53 | 53.11391 | 6.56694 | 22 ft | 37 kts | 231° |
| 2026-05-07 06:54 | 53.11228 | 6.56345 | 22 ft | 36 kts | 233° |
| 2026-05-07 06:54 | 53.11159 | 6.56077 | 23 ft | 13 kts | 215° |
| 2026-05-07 06:54 | 53.11132 | 6.56094 | 23 ft | 4 kts | 125° |
| 2026-05-07 06:54 | 53.11136 | 6.56158 | 23 ft | 8 kts | 55° |
| 2026-05-07 06:55 | 53.11238 | 6.56366 | 22 ft | 52 kts | 52° |
| 2026-05-07 06:55 | 53.11591 | 6.57106 | 24 ft | 109 kts | 52° |
| 2026-05-07 06:55 | 53.12163 | 6.58312 | 24 ft | 157 kts | 52° |
| 2026-05-07 06:55 | 53.12857 | 6.59853 | 486 ft | 164 kts | 53° |
| 2026-05-07 06:56 | 53.13555 | 6.61342 | 1236 ft | 163 kts | 49° |
| 2026-05-07 06:56 | 53.14296 | 6.62763 | 1928 ft | 167 kts | 47° |
| 2026-05-07 06:56 | 53.15115 | 6.64334 | 2215 ft | 193 kts | 52° |
| 2026-05-07 06:56 | 53.15436 | 6.66642 | 2480 ft | 228 kts | 98° |
| 2026-05-07 06:57 | 53.14598 | 6.69073 | 2971 ft | 262 kts | 137° |
| 2026-05-07 06:57 | 53.12871 | 6.70380 | 3569 ft | 289 kts | 173° |
| 2026-05-07 06:57 | 53.10892 | 6.70325 | 4937 ft | 277 kts | 182° |
| 2026-05-07 06:57 | 53.09023 | 6.70520 | 6130 ft | 277 kts | 167° |
| 2026-05-07 06:58 | 53.07199 | 6.71569 | 6656 ft | 279 kts | 153° |
| 2026-05-07 06:58 | 53.05493 | 6.73110 | 7661 ft | 280 kts | 148° |
| 2026-05-07 06:58 | 53.03716 | 6.74500 | 8601 ft | 286 kts | 163° |
| 2026-05-07 06:58 | 53.01730 | 6.74700 | 9499 ft | 292 kts | 191° |
| 2026-05-07 06:59 | 52.99867 | 6.73365 | 10307 ft | 299 kts | 216° |
| 2026-05-07 06:59 | 52.98408 | 6.70770 | 10608 ft | 320 kts | 240° |
| 2026-05-07 06:59 | 52.97638 | 6.67205 | 10855 ft | 341 kts | 262° |
| 2026-05-07 06:59 | 52.97333 | 6.63212 | 11173 ft | 358 kts | 264° |
| 2026-05-07 07:00 | 52.97025 | 6.59074 | 11863 ft | 364 kts | 264° |
| 2026-05-07 07:00 | 52.96704 | 6.54895 | 12624 ft | 366 kts | 263° |
| 2026-05-07 07:00 | 52.96369 | 6.50678 | 13376 ft | 370 kts | 263° |
| 2026-05-07 07:00 | 52.96008 | 6.46440 | 14062 ft | 373 kts | 260° |
| 2026-05-07 07:01 | 52.95306 | 6.42268 | 14702 ft | 378 kts | 250° |
| 2026-05-07 07:01 | 52.94280 | 6.38229 | 15328 ft | 381 kts | 248° |
| 2026-05-07 07:01 | 52.93239 | 6.34177 | 15968 ft | 385 kts | 248° |
| 2026-05-07 07:01 | 52.92188 | 6.30068 | 16610 ft | 388 kts | 248° |
| 2026-05-07 07:02 | 52.91127 | 6.25918 | 17258 ft | 392 kts | 248° |
| 2026-05-07 07:02 | 52.90060 | 6.21739 | 17899 ft | 396 kts | 248° |
| 2026-05-07 07:02 | 52.89039 | 6.17536 | 18490 ft | 400 kts | 249° |
| 2026-05-07 07:02 | 52.88058 | 6.13208 | 19033 ft | 403 kts | 250° |
| 2026-05-07 07:03 | 52.87098 | 6.08819 | 19582 ft | 406 kts | 251° |
| 2026-05-07 07:03 | 52.86139 | 6.04394 | 20140 ft | 409 kts | 251° |
| 2026-05-07 07:03 | 52.85172 | 5.99961 | 20678 ft | 411 kts | 250° |
| 2026-05-07 07:03 | 52.84187 | 5.95510 | 21184 ft | 414 kts | 250° |
| 2026-05-07 07:04 | 52.83178 | 5.91018 | 21687 ft | 417 kts | 250° |
| 2026-05-07 07:04 | 52.82155 | 5.86513 | 22182 ft | 419 kts | 250° |
| 2026-05-07 07:04 | 52.81121 | 5.81981 | 22661 ft | 422 kts | 250° |
| 2026-05-07 07:04 | 52.80090 | 5.77475 | 23122 ft | 425 kts | 250° |
| 2026-05-07 07:05 | 52.79036 | 5.72886 | 23576 ft | 428 kts | 250° |
| 2026-05-07 07:05 | 52.77974 | 5.68264 | 23949 ft | 430 kts | 250° |
| 2026-05-07 07:05 | 52.76914 | 5.63639 | 24337 ft | 433 kts | 250° |
| 2026-05-07 07:05 | 52.75845 | 5.58969 | 24724 ft | 435 kts | 250° |
| 2026-05-07 07:06 | 52.74784 | 5.54341 | 25100 ft | 437 kts | 250° |
| 2026-05-07 07:06 | 52.73703 | 5.49642 | 25471 ft | 439 kts | 250° |
| 2026-05-07 07:06 | 52.72614 | 5.44935 | 25829 ft | 441 kts | 250° |
| 2026-05-07 07:06 | 52.71513 | 5.40193 | 26182 ft | 443 kts | 249° |
| 2026-05-07 07:07 | 52.70405 | 5.35433 | 26529 ft | 445 kts | 249° |
| 2026-05-07 07:07 | 52.69290 | 5.30650 | 26868 ft | 448 kts | 249° |
| 2026-05-07 07:07 | 52.68167 | 5.25843 | 27197 ft | 450 kts | 249° |
| 2026-05-07 07:07 | 52.66837 | 5.21173 | 27518 ft | 452 kts | 243° |
| 2026-05-07 07:08 | 52.65387 | 5.16534 | 27846 ft | 454 kts | 243° |
| 2026-05-07 07:08 | 52.63934 | 5.11884 | 28171 ft | 457 kts | 243° |
| 2026-05-07 07:08 | 52.62815 | 5.08310 | 28475 ft | 457 kts | 243° |
| 2026-05-07 07:08 | 52.61327 | 5.03570 | 28956 ft | 455 kts | 243° |
| 2026-05-07 07:09 | 52.59870 | 4.98940 | 29428 ft | 454 kts | 243° |
| 2026-05-07 07:09 | 52.58421 | 4.94336 | 29948 ft | 453 kts | 243° |
| 2026-05-07 07:09 | 52.56976 | 4.89747 | 30380 ft | 451 kts | 243° |
| 2026-05-07 07:09 | 52.55530 | 4.85174 | 30773 ft | 451 kts | 243° |
| 2026-05-07 07:10 | 52.54082 | 4.80606 | 31168 ft | 450 kts | 243° |
| 2026-05-07 07:10 | 52.52632 | 4.76042 | 31559 ft | 450 kts | 243° |
| 2026-05-07 07:10 | 52.51185 | 4.71486 | 31958 ft | 449 kts | 243° |
| 2026-05-07 07:10 | 52.49740 | 4.66935 | 32364 ft | 449 kts | 243° |
| 2026-05-07 07:11 | 52.48294 | 4.62388 | 32768 ft | 449 kts | 243° |
| 2026-05-07 07:11 | 52.46863 | 4.57904 | 33174 ft | 448 kts | 243° |
| 2026-05-07 07:11 | 52.45415 | 4.53390 | 33586 ft | 448 kts | 243° |
| 2026-05-07 07:11 | 52.43961 | 4.48874 | 34004 ft | 447 kts | 243° |
| 2026-05-07 07:12 | 52.42509 | 4.44373 | 34361 ft | 447 kts | 243° |
| 2026-05-07 07:12 | 52.41059 | 4.39879 | 34701 ft | 446 kts | 243° |
| 2026-05-07 07:12 | 52.39607 | 4.35379 | 35042 ft | 446 kts | 242° |
| 2026-05-07 07:12 | 52.38153 | 4.30876 | 35383 ft | 446 kts | 243° |
| 2026-05-07 07:13 | 52.37192 | 4.27897 | 35588 ft | 446 kts | 243° |
| 2026-05-07 07:13 | 52.35744 | 4.23408 | 35906 ft | 446 kts | 243° |
| 2026-05-07 07:13 | 52.34288 | 4.18904 | 36051 ft | 446 kts | 242° |
| 2026-05-07 07:13 | 52.32835 | 4.14423 | 36077 ft | 445 kts | 242° |
| 2026-05-07 07:14 | 52.29924 | 4.05490 | 36074 ft | 445 kts | 242° |
| 2026-05-07 07:14 | 52.27008 | 3.96587 | 36071 ft | 444 kts | 242° |
| 2026-05-07 07:15 | 52.24093 | 3.87749 | 36075 ft | 444 kts | 242° |
| 2026-05-07 07:15 | 52.21160 | 3.78879 | 36074 ft | 444 kts | 242° |
| 2026-05-07 07:16 | 52.18230 | 3.69994 | 36066 ft | 444 kts | 242° |
| 2026-05-07 07:16 | 52.15290 | 3.61132 | 36070 ft | 445 kts | 242° |
| 2026-05-07 07:17 | 52.12329 | 3.52264 | 36071 ft | 445 kts | 242° |
| 2026-05-07 07:17 | 52.09391 | 3.43478 | 36078 ft | 445 kts | 242° |
| 2026-05-07 07:18 | 52.06429 | 3.34646 | 36080 ft | 444 kts | 242° |
| 2026-05-07 07:18 | 52.03460 | 3.25829 | 36082 ft | 444 kts | 242° |
| 2026-05-07 07:19 | 52.00497 | 3.17078 | 36076 ft | 444 kts | 242° |
| 2026-05-07 07:19 | 51.97511 | 3.08286 | 35940 ft | 445 kts | 242° |
| 2026-05-07 07:20 | 51.96016 | 3.03897 | 35693 ft | 445 kts | 242° |
| 2026-05-07 07:20 | 51.94520 | 2.99507 | 35453 ft | 444 kts | 242° |
| 2026-05-07 07:20 | 51.93022 | 2.95118 | 35203 ft | 445 kts | 242° |
| 2026-05-07 07:20 | 51.91527 | 2.90739 | 34962 ft | 445 kts | 242° |
| 2026-05-07 07:21 | 51.90029 | 2.86355 | 34298 ft | 447 kts | 242° |
| 2026-05-07 07:21 | 51.88513 | 2.81917 | 33311 ft | 453 kts | 242° |
| 2026-05-07 07:21 | 51.86979 | 2.77440 | 32344 ft | 456 kts | 242° |
| 2026-05-07 07:21 | 51.85430 | 2.72934 | 31387 ft | 459 kts | 241° |
| 2026-05-07 07:22 | 51.83889 | 2.68471 | 30443 ft | 460 kts | 241° |
| 2026-05-07 07:22 | 51.82321 | 2.63948 | 29464 ft | 460 kts | 241° |
| 2026-05-07 07:22 | 51.80750 | 2.59423 | 28246 ft | 462 kts | 241° |
| 2026-05-07 07:22 | 51.79175 | 2.54887 | 26980 ft | 465 kts | 241° |
| 2026-05-07 07:23 | 51.77585 | 2.50309 | 25677 ft | 469 kts | 241° |
| 2026-05-07 07:23 | 51.75986 | 2.45708 | 24343 ft | 472 kts | 241° |
| 2026-05-07 07:23 | 51.74370 | 2.41063 | 23175 ft | 472 kts | 241° |
| 2026-05-07 07:23 | 51.72777 | 2.36497 | 22237 ft | 462 kts | 241° |
| 2026-05-07 07:24 | 51.71207 | 2.32019 | 21259 ft | 454 kts | 241° |
| 2026-05-07 07:24 | 51.69657 | 2.27615 | 20281 ft | 448 kts | 241° |
| 2026-05-07 07:24 | 51.68124 | 2.23271 | 19359 ft | 442 kts | 241° |
| 2026-05-07 07:24 | 51.66668 | 2.19003 | 18453 ft | 436 kts | 245° |
| 2026-05-07 07:25 | 51.65233 | 2.09722 | 16496 ft | 423 kts | 268° |
| 2026-05-07 07:25 | 51.65372 | 2.05028 | 15541 ft | 417 kts | 278° |
| 2026-05-07 07:25 | 51.66043 | 2.00523 | 14631 ft | 412 kts | 289° |
| 2026-05-07 07:26 | 51.67008 | 1.96216 | 13825 ft | 406 kts | 290° |
| 2026-05-07 07:26 | 51.67943 | 1.92038 | 13619 ft | 385 kts | 290° |
| 2026-05-07 07:26 | 51.68823 | 1.88085 | 13478 ft | 364 kts | 290° |
| 2026-05-07 07:26 | 51.69653 | 1.84335 | 13342 ft | 345 kts | 290° |
| 2026-05-07 07:27 | 51.70429 | 1.80824 | 13211 ft | 328 kts | 290° |
| 2026-05-07 07:27 | 51.71179 | 1.77429 | 13079 ft | 314 kts | 290° |
| 2026-05-07 07:27 | 51.71897 | 1.74175 | 12943 ft | 302 kts | 290° |
| 2026-05-07 07:27 | 51.72588 | 1.71031 | 12720 ft | 294 kts | 290° |
| 2026-05-07 07:28 | 51.73271 | 1.67924 | 12615 ft | 293 kts | 290° |
| 2026-05-07 07:28 | 51.73955 | 1.64829 | 12487 ft | 292 kts | 290° |
| 2026-05-07 07:28 | 51.74504 | 1.61681 | 12361 ft | 292 kts | 279° |
| 2026-05-07 07:28 | 51.74602 | 1.58407 | 11923 ft | 297 kts | 266° |
| 2026-05-07 07:29 | 51.74378 | 1.55098 | 11593 ft | 294 kts | 264° |
| 2026-05-07 07:29 | 51.74155 | 1.51828 | 11206 ft | 293 kts | 265° |
| 2026-05-07 07:29 | 51.73942 | 1.48572 | 10815 ft | 292 kts | 265° |
| 2026-05-07 07:29 | 51.73734 | 1.45320 | 10445 ft | 290 kts | 265° |
| 2026-05-07 07:30 | 51.73527 | 1.42087 | 10083 ft | 289 kts | 265° |
| 2026-05-07 07:30 | 51.73321 | 1.38866 | 9681 ft | 288 kts | 265° |
| 2026-05-07 07:30 | 51.73116 | 1.35695 | 9293 ft | 286 kts | 265° |
| 2026-05-07 07:30 | 51.72911 | 1.32511 | 8906 ft | 285 kts | 265° |
| 2026-05-07 07:31 | 51.72706 | 1.29344 | 8518 ft | 283 kts | 264° |
| 2026-05-07 07:31 | 51.72502 | 1.26180 | 7956 ft | 288 kts | 264° |
| 2026-05-07 07:31 | 51.72287 | 1.22894 | 7169 ft | 300 kts | 264° |
| 2026-05-07 07:31 | 51.72058 | 1.19482 | 6494 ft | 306 kts | 263° |
| 2026-05-07 07:32 | 51.71834 | 1.16169 | 6264 ft | 295 kts | 263° |
| 2026-05-07 07:32 | 51.71617 | 1.12950 | 6127 ft | 283 kts | 262° |
| 2026-05-07 07:32 | 51.71096 | 1.09975 | 5995 ft | 271 kts | 242° |
| 2026-05-07 07:32 | 51.70154 | 1.07393 | 5845 ft | 263 kts | 238° |
| 2026-05-07 07:33 | 51.69217 | 1.04903 | 5693 ft | 257 kts | 238° |
| 2026-05-07 07:33 | 51.68300 | 1.02460 | 5553 ft | 253 kts | 238° |
| 2026-05-07 07:33 | 51.67215 | 1.00279 | 5394 ft | 248 kts | 222° |
| 2026-05-07 07:33 | 51.65930 | 0.98450 | 5205 ft | 245 kts | 220° |
| 2026-05-07 07:34 | 51.64642 | 0.96672 | 5025 ft | 242 kts | 219° |
| 2026-05-07 07:34 | 51.63365 | 0.94916 | 4847 ft | 240 kts | 219° |
| 2026-05-07 07:34 | 51.62120 | 0.93205 | 4663 ft | 237 kts | 219° |
| 2026-05-07 07:34 | 51.60873 | 0.91487 | 4476 ft | 235 kts | 219° |
| 2026-05-07 07:35 | 51.59643 | 0.89786 | 4295 ft | 232 kts | 219° |
| 2026-05-07 07:35 | 51.58428 | 0.88099 | 4110 ft | 229 kts | 219° |
| 2026-05-07 07:35 | 51.57227 | 0.86438 | 3937 ft | 226 kts | 219° |
| 2026-05-07 07:35 | 51.56039 | 0.84797 | 3747 ft | 224 kts | 220° |
| 2026-05-07 07:36 | 51.54865 | 0.83179 | 3570 ft | 221 kts | 220° |
| 2026-05-07 07:36 | 51.53705 | 0.81585 | 3409 ft | 217 kts | 219° |
| 2026-05-07 07:36 | 51.52570 | 0.80023 | 3278 ft | 213 kts | 219° |
| 2026-05-07 07:36 | 51.51449 | 0.78475 | 3150 ft | 211 kts | 219° |
| 2026-05-07 07:37 | 51.50353 | 0.76960 | 3019 ft | 210 kts | 219° |
| 2026-05-07 07:37 | 51.49250 | 0.75435 | 2887 ft | 206 kts | 219° |
| 2026-05-07 07:37 | 51.48178 | 0.73950 | 2763 ft | 200 kts | 219° |
| 2026-05-07 07:37 | 51.47131 | 0.72502 | 2628 ft | 198 kts | 219° |
| 2026-05-07 07:38 | 51.46091 | 0.71065 | 2502 ft | 197 kts | 219° |
| 2026-05-07 07:38 | 51.45052 | 0.69626 | 2375 ft | 197 kts | 219° |
| 2026-05-07 07:38 | 51.44035 | 0.68176 | 2230 ft | 195 kts | 225° |
| 2026-05-07 07:38 | 51.43406 | 0.66284 | 2120 ft | 193 kts | 258° |
| 2026-05-07 07:39 | 51.43482 | 0.64173 | 2062 ft | 192 kts | 291° |
| 2026-05-07 07:39 | 51.44139 | 0.62319 | 2075 ft | 191 kts | 303° |
| 2026-05-07 07:39 | 51.44840 | 0.60551 | 2064 ft | 190 kts | 303° |
| 2026-05-07 07:39 | 51.45549 | 0.58759 | 2064 ft | 190 kts | 303° |
| 2026-05-07 07:40 | 51.46261 | 0.56961 | 2065 ft | 190 kts | 303° |
| 2026-05-07 07:40 | 51.46983 | 0.55181 | 2061 ft | 190 kts | 308° |
| 2026-05-07 07:40 | 51.48038 | 0.53951 | 2060 ft | 188 kts | 343° |
| 2026-05-07 07:40 | 51.49316 | 0.53813 | 2061 ft | 185 kts | 15° |
| 2026-05-07 07:41 | 51.50428 | 0.54761 | 2072 ft | 178 kts | 47° |
| 2026-05-07 07:41 | 51.51113 | 0.56201 | 2068 ft | 155 kts | 56° |
| 2026-05-07 07:41 | 51.51724 | 0.57546 | 1963 ft | 145 kts | 56° |
| 2026-05-07 07:41 | 51.52307 | 0.58834 | 1787 ft | 140 kts | 56° |
| 2026-05-07 07:42 | 51.52867 | 0.60065 | 1592 ft | 131 kts | 57° |
| 2026-05-07 07:42 | 51.53414 | 0.61214 | 1358 ft | 128 kts | 56° |
| 2026-05-07 07:42 | 51.53935 | 0.62350 | 1120 ft | 125 kts | 58° |
| 2026-05-07 07:42 | 51.54434 | 0.63497 | 897 ft | 125 kts | 58° |
| 2026-05-07 07:43 | 51.54932 | 0.64639 | 710 ft | 125 kts | 58° |
| 2026-05-07 07:43 | 51.55439 | 0.65775 | 558 ft | 124 kts | 57° |
| 2026-05-07 07:43 | 51.55944 | 0.66887 | 351 ft | 124 kts | 57° |
| 2026-05-07 07:43 | 51.56447 | 0.68010 | 126 ft | 123 kts | 56° |
| 2026-05-07 07:44 | 51.56929 | 0.69066 | 56 ft | 103 kts | 53° |
| 2026-05-07 07:44 | 51.57243 | 0.69777 | 54 ft | 53 kts | 53° |
| 2026-05-07 07:44 | 51.57355 | 0.70052 | 55 ft | 18 kts | 62° |
| 2026-05-07 07:44 | 51.57379 | 0.70084 | 52 ft | 2 kts | 288° |
| 2026-05-07 07:45 | 51.57372 | 0.70048 | 55 ft | 5 kts | 242° |
| 2026-05-07 07:45 | 51.57342 | 0.69984 | 56 ft | 10 kts | 231° |
| 2026-05-07 07:45 | 51.57289 | 0.69873 | 54 ft | 15 kts | 232° |
| 2026-05-07 07:45 | 51.57195 | 0.69900 | 54 ft | 19 kts | 146° |
| 2026-05-07 07:46 | 51.57067 | 0.70046 | 54 ft | 26 kts | 143° |
| 2026-05-07 07:46 | 51.56957 | 0.70169 | 53 ft | 9 kts | 147° |
| 2026-05-07 07:46 | 51.56927 | 0.70275 | 54 ft | 12 kts | 95° |
| 2026-05-07 07:46 | 51.56926 | 0.70284 | 54 ft | 0 kts | 95° |